Algodones, NM (87001)

2:48 PM MDT on October 21, 2014 (GMT -0600)
On The Loop | Change Station
CLOSE
Current Station
Personal Weather Station
Location: Placitas, NM
Elevation: 5260 ft
Nearby Weather Stations

Elev 5260 ft 35.34 °N, 106.50 °W | Updated 15 minutes ago

Mostly Cloudy
Mostly Cloudy
67.7 °F
Feels Like 67.7 °F
N
0.0
Wind Variable Wind from ESE
Gusts 0.0 mph

Today
High -- | Low -- °F
--% Chance of Precip.
Yesterday
High -- | Low -- °F
Precip. -- in
7:17 AM 6:23 PM
Waning Crescent, 4% visible
Pressure 30.14 in
Visibility 10.0 miles
Clouds Scattered Clouds 3900 ft
Mostly Cloudy 8000 ft
Dew Point 44 °F
Humidity 43%
Rainfall 0.00 in
Snow Depth Not available.
UV 4.9 out of 12
Pollen 3.00 out of 12
Air Quality Not available.
Flu Activity Sporadic
METAR KAEG 211948Z 18005KT 10SM SCT039 BKN080 17/08 A3014

More Conditions Fewer Conditions

Pressure 30.14 in
Visibility 10.0 miles
Clouds Scattered Clouds 3900 ft
Mostly Cloudy 8000 ft
Dew Point 44 °F
Humidity 43%
Rainfall 0.00 in
Snow Depth Not available.
UV 4.9 out of 12
Pollen 3.00 out of 12
Air Quality Not available.
Flu Activity Sporadic
METAR KAEG 211948Z 18005KT 10SM SCT039 BKN080 17/08 A3014

More Conditions Fewer Conditions

Nowcast | as of 1:53 PM MDT on October 21, 2014

Showers and a couple of thunderstorms will continue to increase in coverage through the afternoon over central New Mexico. Expect light to occasionally moderate rain with amounts around one tenth to one quarter of an inch through 4 PM...locally higher amounts are possible. Locations impacted include Mountainair...Manzano...Clines Corners...Santa Fe...Cowles...Espanola...Canones and Canjilon.

×

10-Day Weather Forecast

Almanac

Astronomy

Oct. 21, 2014 Rise Set
Actual Time 7:17 AM MDT 6:23 PM MDT
Civil Twilight 6:51 AM MDT 6:48 PM MDT
Nautical Twilight 6:21 AM MDT 7:18 PM MDT
Astronomical Twilight 5:52 AM MDT 7:47 PM MDT
Moon 5:08 AM MDT 5:14 PM MDT
Length of Visible Light 11h 57m
Length of Day
11h 05m
Tomorrow will be 2m 5s shorter.
Waning Crescent, 4% of the Moon is Illuminated
Today
Waning Crescent
Oct 23
New
Oct 30
First Quarter
Nov 6
Full
Nov 14
Last Quarter

Today's Extremes

State Highs State Lows

Community

WunderPhotos

Upload Photos

1,763,774 photos uploaded!

WunderBlogs® & News

Nearby

Snow Depth

Station Depth Elevation
Quemazon 0 in 9500 ft
Senorita Divide #2 0 in 8600 ft
Santa Fe 0 in 11445 ft
Elk Cabin 0 in 8210 ft
Wesner Springs 3 in 11120 ft

Earthquake Activity

City Distance Mag. Time & Date
Trinidad, Colorado 145 miles 2.7 10:33 PM MDT
2014-10-20
Trinidad, Colorado 156 miles 2.5 10:01 PM MDT
2014-10-19
Minimum magnitude displayed is 2.5.

Coastal Water Temperatures

Place Temperature
No Stations Reporting

Nearby Weather Stations